sensor_id;sensor_type;location;lat;lon;timestamp;pressure;altitude;pressure_sealevel;temperature;humidity
77823;BME280;67013;49.730;17.292;2024-02-21T00:01:36;99158.35;;;6.07;71.66
77823;BME280;67013;49.730;17.292;2024-02-21T00:04:06;99161.48;;;6.07;71.83
77823;BME280;67013;49.730;17.292;2024-02-21T00:06:35;99161.23;;;6.05;71.64
77823;BME280;67013;49.730;17.292;2024-02-21T00:09:05;99160.10;;;6.02;72.12
77823;BME280;67013;49.730;17.292;2024-02-21T00:11:35;99162.86;;;6.03;71.87
77823;BME280;67013;49.730;17.292;2024-02-21T00:14:04;99162.06;;;6.01;71.95
77823;BME280;67013;49.730;17.292;2024-02-21T00:16:34;99158.67;;;5.99;72.19
77823;BME280;67013;49.730;17.292;2024-02-21T00:19:04;99160.31;;;6.01;72.25
77823;BME280;67013;49.730;17.292;2024-02-21T00:21:33;99159.55;;;6.04;72.11
77823;BME280;67013;49.730;17.292;2024-02-21T00:24:04;99155.99;;;6.06;72.11
77823;BME280;67013;49.730;17.292;2024-02-21T00:26:34;99159.61;;;6.06;72.07
77823;BME280;67013;49.730;17.292;2024-02-21T00:29:03;99154.98;;;6.05;72.13
77823;BME280;67013;49.730;17.292;2024-02-21T00:31:33;99153.01;;;6.03;72.27
77823;BME280;67013;49.730;17.292;2024-02-21T00:34:03;99156.34;;;6.02;72.15
77823;BME280;67013;49.730;17.292;2024-02-21T00:36:32;99152.60;;;6.00;71.77
77823;BME280;67013;49.730;17.292;2024-02-21T00:39:02;99146.47;;;5.98;72.19
77823;BME280;67013;49.730;17.292;2024-02-21T00:41:32;99143.54;;;5.98;72.41
77823;BME280;67013;49.730;17.292;2024-02-21T00:44:02;99140.11;;;5.97;72.05
77823;BME280;67013;49.730;17.292;2024-02-21T00:46:33;99139.94;;;5.97;72.19
77823;BME280;67013;49.730;17.292;2024-02-21T00:49:03;99138.42;;;5.96;72.29
77823;BME280;67013;49.730;17.292;2024-02-21T00:51:32;99136.92;;;5.99;72.37
77823;BME280;67013;49.730;17.292;2024-02-21T00:54:02;99137.63;;;6.03;71.75
77823;BME280;67013;49.730;17.292;2024-02-21T00:56:31;99131.01;;;6.05;72.15
77823;BME280;67013;49.730;17.292;2024-02-21T00:59:01;99132.15;;;6.06;72.21
77823;BME280;67013;49.730;17.292;2024-02-21T01:01:30;99130.36;;;6.08;72.19
77823;BME280;67013;49.730;17.292;2024-02-21T01:04:00;99132.58;;;6.08;72.26
77823;BME280;67013;49.730;17.292;2024-02-21T01:06:29;99130.49;;;6.08;72.22
77823;BME280;67013;49.730;17.292;2024-02-21T01:08:59;99130.66;;;6.09;72.15
77823;BME280;67013;49.730;17.292;2024-02-21T01:11:28;99126.34;;;6.09;72.18
77823;BME280;67013;49.730;17.292;2024-02-21T01:13:58;99126.66;;;6.09;72.16
77823;BME280;67013;49.730;17.292;2024-02-21T01:16:28;99124.95;;;6.09;72.26
77823;BME280;67013;49.730;17.292;2024-02-21T01:18:57;99129.01;;;6.11;72.42
77823;BME280;67013;49.730;17.292;2024-02-21T01:21:27;99127.31;;;6.14;72.32
77823;BME280;67013;49.730;17.292;2024-02-21T01:23:56;99126.12;;;6.18;72.08
77823;BME280;67013;49.730;17.292;2024-02-21T01:26:26;99121.34;;;6.20;72.52
77823;BME280;67013;49.730;17.292;2024-02-21T01:28:55;99118.48;;;6.22;72.37
77823;BME280;67013;49.730;17.292;2024-02-21T01:31:25;99114.77;;;6.24;72.19
77823;BME280;67013;49.730;17.292;2024-02-21T01:33:54;99114.88;;;6.26;72.60
77823;BME280;67013;49.730;17.292;2024-02-21T01:36:24;99107.78;;;6.26;72.21
77823;BME280;67013;49.730;17.292;2024-02-21T01:38:54;99108.79;;;6.27;72.22
77823;BME280;67013;49.730;17.292;2024-02-21T01:41:23;99107.76;;;6.26;72.30
77823;BME280;67013;49.730;17.292;2024-02-21T01:43:53;99102.98;;;6.25;72.07
77823;BME280;67013;49.730;17.292;2024-02-21T01:46:22;99101.88;;;6.23;72.04
77823;BME280;67013;49.730;17.292;2024-02-21T01:48:56;99099.99;;;6.23;72.51
77823;BME280;67013;49.730;17.292;2024-02-21T01:51:26;99095.95;;;6.24;72.44
77823;BME280;67013;49.730;17.292;2024-02-21T01:53:56;99093.41;;;6.27;72.34
77823;BME280;67013;49.730;17.292;2024-02-21T01:56:27;99091.92;;;6.33;72.44
77823;BME280;67013;49.730;17.292;2024-02-21T01:58:57;99089.01;;;6.41;72.18
77823;BME280;67013;49.730;17.292;2024-02-21T02:01:27;99088.85;;;6.44;72.26
77823;BME280;67013;49.730;17.292;2024-02-21T02:03:57;99090.79;;;6.47;72.25
77823;BME280;67013;49.730;17.292;2024-02-21T02:06:28;99083.98;;;6.49;72.32
77823;BME280;67013;49.730;17.292;2024-02-21T02:08:58;99081.98;;;6.51;72.44
77823;BME280;67013;49.730;17.292;2024-02-21T02:11:27;99078.36;;;6.54;72.17
77823;BME280;67013;49.730;17.292;2024-02-21T02:13:57;99072.46;;;6.54;72.00
77823;BME280;67013;49.730;17.292;2024-02-21T02:16:26;99073.84;;;6.55;71.67
77823;BME280;67013;49.730;17.292;2024-02-21T02:18:56;99070.20;;;6.56;71.98
77823;BME280;67013;49.730;17.292;2024-02-21T02:21:29;99061.08;;;6.54;71.71
77823;BME280;67013;49.730;17.292;2024-02-21T02:24:00;99058.11;;;6.55;72.06
77823;BME280;67013;49.730;17.292;2024-02-21T02:26:29;99052.99;;;6.57;72.09
77823;BME280;67013;49.730;17.292;2024-02-21T02:29:00;99054.17;;;6.58;72.31
77823;BME280;67013;49.730;17.292;2024-02-21T02:31:30;99049.66;;;6.58;72.31
77823;BME280;67013;49.730;17.292;2024-02-21T02:33:59;99049.61;;;6.60;72.31
77823;BME280;67013;49.730;17.292;2024-02-21T02:36:29;99047.86;;;6.60;72.35
77823;BME280;67013;49.730;17.292;2024-02-21T02:38:58;99042.67;;;6.60;72.47
77823;BME280;67013;49.730;17.292;2024-02-21T02:41:28;99045.39;;;6.61;72.51
77823;BME280;67013;49.730;17.292;2024-02-21T02:43:58;99042.66;;;6.60;73.04
77823;BME280;67013;49.730;17.292;2024-02-21T02:46:27;99040.75;;;6.60;73.25
77823;BME280;67013;49.730;17.292;2024-02-21T02:48:57;99035.35;;;6.62;73.20
77823;BME280;67013;49.730;17.292;2024-02-21T02:51:26;99035.70;;;6.65;73.35
77823;BME280;67013;49.730;17.292;2024-02-21T02:53:56;99033.64;;;6.68;73.24
77823;BME280;67013;49.730;17.292;2024-02-21T02:56:25;99030.30;;;6.69;73.17
77823;BME280;67013;49.730;17.292;2024-02-21T02:58:55;99032.70;;;6.70;73.29
77823;BME280;67013;49.730;17.292;2024-02-21T03:01:24;99033.21;;;6.70;73.31
77823;BME280;67013;49.730;17.292;2024-02-21T03:03:55;99033.90;;;6.70;73.20
77823;BME280;67013;49.730;17.292;2024-02-21T03:06:24;99032.70;;;6.70;73.52
77823;BME280;67013;49.730;17.292;2024-02-21T03:08:54;99028.72;;;6.70;73.66
77823;BME280;67013;49.730;17.292;2024-02-21T03:11:23;99024.89;;;6.71;73.78
77823;BME280;67013;49.730;17.292;2024-02-21T03:13:57;99029.02;;;6.71;73.89
77823;BME280;67013;49.730;17.292;2024-02-21T03:16:27;99024.42;;;6.73;74.13
77823;BME280;67013;49.730;17.292;2024-02-21T03:18:56;99021.72;;;6.76;73.64
77823;BME280;67013;49.730;17.292;2024-02-21T03:21:26;99018.48;;;6.79;73.37
77823;BME280;67013;49.730;17.292;2024-02-21T03:23:55;99014.96;;;6.80;73.41
77823;BME280;67013;49.730;17.292;2024-02-21T03:26:25;99015.13;;;6.80;73.39
77823;BME280;67013;49.730;17.292;2024-02-21T03:28:54;99009.91;;;6.81;73.47
77823;BME280;67013;49.730;17.292;2024-02-21T03:31:24;99012.20;;;6.80;73.53
77823;BME280;67013;49.730;17.292;2024-02-21T03:33:53;99008.97;;;6.79;73.69
77823;BME280;67013;49.730;17.292;2024-02-21T03:36:23;99007.94;;;6.79;73.76
77823;BME280;67013;49.730;17.292;2024-02-21T03:38:53;99007.13;;;6.81;73.82
77823;BME280;67013;49.730;17.292;2024-02-21T03:41:23;99010.71;;;6.85;73.84
77823;BME280;67013;49.730;17.292;2024-02-21T03:43:53;99009.70;;;6.88;73.96
77823;BME280;67013;49.730;17.292;2024-02-21T03:46:23;99010.60;;;6.91;73.73
77823;BME280;67013;49.730;17.292;2024-02-21T03:48:53;99010.36;;;6.93;73.57
77823;BME280;67013;49.730;17.292;2024-02-21T03:51:22;99009.08;;;6.94;73.81
77823;BME280;67013;49.730;17.292;2024-02-21T03:53:52;99009.75;;;6.95;73.89
77823;BME280;67013;49.730;17.292;2024-02-21T03:56:21;99011.02;;;6.94;73.74
77823;BME280;67013;49.730;17.292;2024-02-21T03:58:51;99012.42;;;6.93;73.68
77823;BME280;67013;49.730;17.292;2024-02-21T04:01:21;99017.00;;;6.91;73.68
77823;BME280;67013;49.730;17.292;2024-02-21T04:03:50;99012.69;;;6.91;73.96
77823;BME280;67013;49.730;17.292;2024-02-21T04:06:20;99015.58;;;6.92;73.81
77823;BME280;67013;49.730;17.292;2024-02-21T04:08:49;99011.20;;;6.93;73.88
77823;BME280;67013;49.730;17.292;2024-02-21T04:11:19;99010.41;;;6.96;73.68
77823;BME280;67013;49.730;17.292;2024-02-21T04:13:48;99008.46;;;6.97;73.71
77823;BME280;67013;49.730;17.292;2024-02-21T04:16:19;99010.18;;;6.97;73.62
77823;BME280;67013;49.730;17.292;2024-02-21T04:18:49;99011.05;;;6.97;73.67
77823;BME280;67013;49.730;17.292;2024-02-21T04:21:18;99010.61;;;6.95;73.41
77823;BME280;67013;49.730;17.292;2024-02-21T04:23:48;99006.96;;;6.92;73.49
77823;BME280;67013;49.730;17.292;2024-02-21T04:26:17;99005.52;;;6.89;73.39
77823;BME280;67013;49.730;17.292;2024-02-21T04:28:47;99003.41;;;6.86;73.45
77823;BME280;67013;49.730;17.292;2024-02-21T04:31:17;99002.99;;;6.84;73.38
77823;BME280;67013;49.730;17.292;2024-02-21T04:33:46;99002.71;;;6.83;73.21
77823;BME280;67013;49.730;17.292;2024-02-21T04:36:16;98996.48;;;6.83;73.61
77823;BME280;67013;49.730;17.292;2024-02-21T04:38:46;98993.28;;;6.85;73.24
77823;BME280;67013;49.730;17.292;2024-02-21T04:41:17;98989.80;;;6.85;73.02
77823;BME280;67013;49.730;17.292;2024-02-21T04:43:47;98990.64;;;6.86;73.12
77823;BME280;67013;49.730;17.292;2024-02-21T04:46:16;98990.79;;;6.86;73.57
77823;BME280;67013;49.730;17.292;2024-02-21T04:48:46;98991.99;;;6.86;73.32
77823;BME280;67013;49.730;17.292;2024-02-21T04:51:16;98986.12;;;6.86;73.40
77823;BME280;67013;49.730;17.292;2024-02-21T04:53:45;98984.19;;;6.87;73.29
77823;BME280;67013;49.730;17.292;2024-02-21T04:56:15;98978.33;;;6.87;73.01
77823;BME280;67013;49.730;17.292;2024-02-21T04:58:44;98980.09;;;6.86;73.19
77823;BME280;67013;49.730;17.292;2024-02-21T05:01:13;98980.78;;;6.86;73.52
77823;BME280;67013;49.730;17.292;2024-02-21T05:03:43;98982.95;;;6.88;73.21
77823;BME280;67013;49.730;17.292;2024-02-21T05:06:12;98983.52;;;6.90;73.22
77823;BME280;67013;49.730;17.292;2024-02-21T05:08:42;98981.90;;;6.91;73.18
77823;BME280;67013;49.730;17.292;2024-02-21T05:11:12;98978.02;;;6.93;72.84
77823;BME280;67013;49.730;17.292;2024-02-21T05:13:41;98979.58;;;6.93;73.04
77823;BME280;67013;49.730;17.292;2024-02-21T05:16:11;98973.71;;;6.93;73.18
77823;BME280;67013;49.730;17.292;2024-02-21T05:18:41;98967.50;;;6.93;73.17
77823;BME280;67013;49.730;17.292;2024-02-21T05:21:11;98964.47;;;6.91;73.43
77823;BME280;67013;49.730;17.292;2024-02-21T05:23:41;98963.39;;;6.88;73.47
77823;BME280;67013;49.730;17.292;2024-02-21T05:26:10;98966.42;;;6.86;73.35
77823;BME280;67013;49.730;17.292;2024-02-21T05:28:40;98968.27;;;6.87;73.37
77823;BME280;67013;49.730;17.292;2024-02-21T05:31:09;98966.42;;;6.90;73.44
77823;BME280;67013;49.730;17.292;2024-02-21T05:33:39;98963.52;;;6.93;73.41
77823;BME280;67013;49.730;17.292;2024-02-21T05:36:09;98965.64;;;6.95;73.65
77823;BME280;67013;49.730;17.292;2024-02-21T05:38:38;98962.19;;;6.95;73.40
77823;BME280;67013;49.730;17.292;2024-02-21T05:41:08;98964.40;;;6.92;73.52
77823;BME280;67013;49.730;17.292;2024-02-21T05:43:37;98965.45;;;6.88;73.75
77823;BME280;67013;49.730;17.292;2024-02-21T05:46:07;98962.98;;;6.86;74.12
77823;BME280;67013;49.730;17.292;2024-02-21T05:48:37;98962.70;;;6.84;74.35
77823;BME280;67013;49.730;17.292;2024-02-21T05:51:07;98957.59;;;6.86;74.14
77823;BME280;67013;49.730;17.292;2024-02-21T05:53:36;98958.12;;;6.90;74.20
77823;BME280;67013;49.730;17.292;2024-02-21T05:56:12;98957.08;;;6.94;73.99
77823;BME280;67013;49.730;17.292;2024-02-21T05:58:42;98957.42;;;6.97;74.09
77823;BME280;67013;49.730;17.292;2024-02-21T06:01:11;98958.23;;;6.98;74.08
77823;BME280;67013;49.730;17.292;2024-02-21T06:03:41;98954.56;;;6.98;74.11
77823;BME280;67013;49.730;17.292;2024-02-21T06:06:11;98957.63;;;6.99;73.81
77823;BME280;67013;49.730;17.292;2024-02-21T06:08:42;98956.77;;;6.99;73.67
77823;BME280;67013;49.730;17.292;2024-02-21T06:11:11;98956.86;;;6.98;73.81
77823;BME280;67013;49.730;17.292;2024-02-21T06:13:42;98956.23;;;6.97;73.66
77823;BME280;67013;49.730;17.292;2024-02-21T06:16:11;98956.64;;;6.95;73.78
77823;BME280;67013;49.730;17.292;2024-02-21T06:18:41;98956.42;;;6.96;73.65
77823;BME280;67013;49.730;17.292;2024-02-21T06:21:10;98955.42;;;6.98;73.89
77823;BME280;67013;49.730;17.292;2024-02-21T06:23:40;98956.08;;;7.03;73.92
77823;BME280;67013;49.730;17.292;2024-02-21T06:26:10;98961.48;;;7.06;73.76
77823;BME280;67013;49.730;17.292;2024-02-21T06:28:40;98967.27;;;7.08;73.42
77823;BME280;67013;49.730;17.292;2024-02-21T06:31:10;98971.00;;;7.10;73.58
77823;BME280;67013;49.730;17.292;2024-02-21T06:33:40;98971.85;;;7.13;73.42
77823;BME280;67013;49.730;17.292;2024-02-21T06:36:10;98979.70;;;7.15;73.06
77823;BME280;67013;49.730;17.292;2024-02-21T06:38:39;98981.73;;;7.16;73.23
77823;BME280;67013;49.730;17.292;2024-02-21T06:41:16;98975.45;;;7.17;73.24
77823;BME280;67013;49.730;17.292;2024-02-21T06:43:46;98974.23;;;7.21;72.41
77823;BME280;67013;49.730;17.292;2024-02-21T06:46:25;98977.66;;;7.25;72.28
77823;BME280;67013;49.730;17.292;2024-02-21T06:48:56;98972.48;;;7.31;72.39
77823;BME280;67013;49.730;17.292;2024-02-21T06:51:26;98969.14;;;7.39;72.29
77823;BME280;67013;49.730;17.292;2024-02-21T06:53:56;98965.39;;;7.49;72.35
77823;BME280;67013;49.730;17.292;2024-02-21T06:56:26;98960.91;;;7.58;71.85
77823;BME280;67013;49.730;17.292;2024-02-21T06:58:57;98961.06;;;7.68;71.27
77823;BME280;67013;49.730;17.292;2024-02-21T07:01:26;98957.13;;;7.77;70.94
77823;BME280;67013;49.730;17.292;2024-02-21T07:03:56;98956.16;;;7.89;70.71
77823;BME280;67013;49.730;17.292;2024-02-21T07:06:26;98956.09;;;8.04;70.60
77823;BME280;67013;49.730;17.292;2024-02-21T07:08:56;98953.91;;;8.21;70.08
77823;BME280;67013;49.730;17.292;2024-02-21T07:11:25;98957.13;;;8.35;69.57
77823;BME280;67013;49.730;17.292;2024-02-21T07:13:55;98961.27;;;8.43;69.26
77823;BME280;67013;49.730;17.292;2024-02-21T07:16:24;98959.21;;;8.52;68.83
77823;BME280;67013;49.730;17.292;2024-02-21T07:18:54;98959.85;;;8.62;68.46
77823;BME280;67013;49.730;17.292;2024-02-21T07:21:24;98958.52;;;8.70;67.89
77823;BME280;67013;49.730;17.292;2024-02-21T07:23:53;98958.30;;;8.77;67.63
77823;BME280;67013;49.730;17.292;2024-02-21T07:26:23;98958.80;;;8.84;67.38
77823;BME280;67013;49.730;17.292;2024-02-21T07:28:52;98957.11;;;8.95;67.43
77823;BME280;67013;49.730;17.292;2024-02-21T07:31:22;98952.50;;;9.12;66.97
77823;BME280;67013;49.730;17.292;2024-02-21T07:33:52;98953.64;;;9.37;66.69
77823;BME280;67013;49.730;17.292;2024-02-21T07:36:30;98947.98;;;9.62;66.12
77823;BME280;67013;49.730;17.292;2024-02-21T07:39:00;98946.67;;;9.86;65.94
77823;BME280;67013;49.730;17.292;2024-02-21T07:41:31;98940.23;;;10.09;65.54
77823;BME280;67013;49.730;17.292;2024-02-21T07:44:02;98939.58;;;10.26;65.02
77823;BME280;67013;49.730;17.292;2024-02-21T07:46:32;98936.12;;;10.39;64.18
77823;BME280;67013;49.730;17.292;2024-02-21T07:49:03;98932.23;;;10.51;63.50
77823;BME280;67013;49.730;17.292;2024-02-21T07:51:32;98922.86;;;10.64;62.69
77823;BME280;67013;49.730;17.292;2024-02-21T07:54:03;98919.02;;;10.72;61.86
77823;BME280;67013;49.730;17.292;2024-02-21T07:56:33;98914.48;;;10.75;62.14
77823;BME280;67013;49.730;17.292;2024-02-21T07:59:02;98913.95;;;10.78;61.92
77823;BME280;67013;49.730;17.292;2024-02-21T08:01:32;98907.60;;;10.77;61.33
77823;BME280;67013;49.730;17.292;2024-02-21T08:04:03;98904.85;;;10.68;61.22
77823;BME280;67013;49.730;17.292;2024-02-21T08:06:33;98903.08;;;10.57;60.83
77823;BME280;67013;49.730;17.292;2024-02-21T08:09:02;98905.38;;;10.49;61.18
77823;BME280;67013;49.730;17.292;2024-02-21T08:11:32;98907.20;;;10.42;61.29
77823;BME280;67013;49.730;17.292;2024-02-21T08:14:02;98907.83;;;10.36;61.38
77823;BME280;67013;49.730;17.292;2024-02-21T08:16:32;98909.46;;;10.32;61.38
77823;BME280;67013;49.730;17.292;2024-02-21T08:19:02;98908.13;;;10.25;61.58
77823;BME280;67013;49.730;17.292;2024-02-21T08:21:32;98909.15;;;10.20;61.87
77823;BME280;67013;49.730;17.292;2024-02-21T08:24:02;98902.84;;;10.15;61.83
77823;BME280;67013;49.730;17.292;2024-02-21T08:26:31;98902.88;;;10.09;61.58
77823;BME280;67013;49.730;17.292;2024-02-21T08:29:01;98904.11;;;10.03;62.02
77823;BME280;67013;49.730;17.292;2024-02-21T08:31:31;98900.67;;;10.02;62.02
77823;BME280;67013;49.730;17.292;2024-02-21T08:34:01;98897.35;;;10.03;62.13
77823;BME280;67013;49.730;17.292;2024-02-21T08:36:32;98895.08;;;10.06;62.32
77823;BME280;67013;49.730;17.292;2024-02-21T08:39:03;98893.55;;;10.11;62.31
77823;BME280;67013;49.730;17.292;2024-02-21T08:41:33;98899.07;;;10.26;62.27
77823;BME280;67013;49.730;17.292;2024-02-21T08:44:03;98892.09;;;10.45;62.19
77823;BME280;67013;49.730;17.292;2024-02-21T08:46:33;98892.10;;;10.66;61.82
77823;BME280;67013;49.730;17.292;2024-02-21T08:49:03;98891.91;;;10.90;61.22
77823;BME280;67013;49.730;17.292;2024-02-21T08:51:33;98891.40;;;11.08;61.10
77823;BME280;67013;49.730;17.292;2024-02-21T08:54:03;98888.63;;;11.21;60.54
77823;BME280;67013;49.730;17.292;2024-02-21T08:56:34;98894.59;;;11.30;60.24
77823;BME280;67013;49.730;17.292;2024-02-21T08:59:03;98891.97;;;11.36;60.12
77823;BME280;67013;49.730;17.292;2024-02-21T09:01:33;98894.08;;;11.46;59.86
77823;BME280;67013;49.730;17.292;2024-02-21T09:04:03;98892.48;;;11.51;60.02
77823;BME280;67013;49.730;17.292;2024-02-21T09:06:33;98892.30;;;11.54;59.71
77823;BME280;67013;49.730;17.292;2024-02-21T09:09:05;98896.77;;;11.55;59.45
77823;BME280;67013;49.730;17.292;2024-02-21T09:11:36;98894.20;;;11.54;59.64
77823;BME280;67013;49.730;17.292;2024-02-21T09:14:06;98891.27;;;11.51;59.58
77823;BME280;67013;49.730;17.292;2024-02-21T09:16:36;98891.60;;;11.49;59.71
77823;BME280;67013;49.730;17.292;2024-02-21T09:19:05;98888.02;;;11.45;59.76
77823;BME280;67013;49.730;17.292;2024-02-21T09:21:38;98887.63;;;11.39;59.55
77823;BME280;67013;49.730;17.292;2024-02-21T09:24:08;98888.41;;;11.32;59.78
77823;BME280;67013;49.730;17.292;2024-02-21T09:26:38;98886.41;;;11.25;59.91
77823;BME280;67013;49.730;17.292;2024-02-21T09:29:08;98883.83;;;11.20;59.89
77823;BME280;67013;49.730;17.292;2024-02-21T09:31:37;98885.08;;;11.14;59.88
77823;BME280;67013;49.730;17.292;2024-02-21T09:34:07;98887.16;;;11.10;60.07
77823;BME280;67013;49.730;17.292;2024-02-21T09:36:39;98888.09;;;11.03;60.31
77823;BME280;67013;49.730;17.292;2024-02-21T09:39:09;98892.50;;;11.00;60.47
77823;BME280;67013;49.730;17.292;2024-02-21T09:41:47;98895.66;;;10.97;60.27
77823;BME280;67013;49.730;17.292;2024-02-21T09:44:21;98894.72;;;10.93;60.35
77823;BME280;67013;49.730;17.292;2024-02-21T09:46:56;98893.45;;;10.88;60.31
77823;BME280;67013;49.730;17.292;2024-02-21T09:49:31;98892.54;;;10.81;60.10
77823;BME280;67013;49.730;17.292;2024-02-21T09:52:03;98895.56;;;10.74;60.15
77823;BME280;67013;49.730;17.292;2024-02-21T09:54:34;98889.80;;;10.70;60.09
77823;BME280;67013;49.730;17.292;2024-02-21T09:57:05;98891.80;;;10.66;60.22
77823;BME280;67013;49.730;17.292;2024-02-21T09:59:35;98891.55;;;10.64;60.43
77823;BME280;67013;49.730;17.292;2024-02-21T10:02:05;98893.93;;;10.65;60.82
77823;BME280;67013;49.730;17.292;2024-02-21T10:04:35;98900.58;;;10.70;60.96
77823;BME280;67013;49.730;17.292;2024-02-21T10:07:05;98898.60;;;10.73;61.34
77823;BME280;67013;49.730;17.292;2024-02-21T10:09:35;98899.13;;;10.76;61.38
77823;BME280;67013;49.730;17.292;2024-02-21T10:12:12;98902.48;;;10.78;61.40
77823;BME280;67013;49.730;17.292;2024-02-21T10:14:42;98900.27;;;10.80;61.38
77823;BME280;67013;49.730;17.292;2024-02-21T10:17:17;98896.66;;;10.82;61.48
77823;BME280;67013;49.730;17.292;2024-02-21T10:19:48;98898.27;;;10.83;61.22
77823;BME280;67013;49.730;17.292;2024-02-21T10:22:18;98897.56;;;10.84;61.27
77823;BME280;67013;49.730;17.292;2024-02-21T10:24:49;98898.70;;;10.83;61.31
77823;BME280;67013;49.730;17.292;2024-02-21T10:27:18;98898.46;;;10.83;61.52
77823;BME280;67013;49.730;17.292;2024-02-21T10:29:50;98899.84;;;10.83;61.76
77823;BME280;67013;49.730;17.292;2024-02-21T10:32:20;98891.23;;;10.82;61.85
77823;BME280;67013;49.730;17.292;2024-02-21T10:35:00;98885.40;;;10.81;62.04
77823;BME280;67013;49.730;17.292;2024-02-21T10:37:29;98878.64;;;10.81;62.38
77823;BME280;67013;49.730;17.292;2024-02-21T10:40:00;98876.80;;;10.79;62.21
77823;BME280;67013;49.730;17.292;2024-02-21T10:42:33;98877.96;;;10.78;62.27
77823;BME280;67013;49.730;17.292;2024-02-21T10:45:06;98874.38;;;10.74;62.93
77823;BME280;67013;49.730;17.292;2024-02-21T10:47:38;98871.06;;;10.72;63.33
77823;BME280;67013;49.730;17.292;2024-02-21T10:50:12;98865.44;;;10.70;63.84
77823;BME280;67013;49.730;17.292;2024-02-21T10:52:51;98863.11;;;10.71;63.96
77823;BME280;67013;49.730;17.292;2024-02-21T10:55:29;98861.64;;;10.74;64.25
77823;BME280;67013;49.730;17.292;2024-02-21T10:58:01;98857.69;;;10.77;64.42
77823;BME280;67013;49.730;17.292;2024-02-21T11:00:32;98861.38;;;10.76;64.68
77823;BME280;67013;49.730;17.292;2024-02-21T11:03:02;98864.88;;;10.75;64.75
77823;BME280;67013;49.730;17.292;2024-02-21T11:05:34;98860.52;;;10.73;64.90
77823;BME280;67013;49.730;17.292;2024-02-21T11:08:05;98854.98;;;10.70;64.94
77823;BME280;67013;49.730;17.292;2024-02-21T11:10:37;98844.71;;;10.68;65.20
77823;BME280;67013;49.730;17.292;2024-02-21T11:13:10;98837.34;;;10.66;65.15
77823;BME280;67013;49.730;17.292;2024-02-21T11:15:41;98833.93;;;10.65;65.69
77823;BME280;67013;49.730;17.292;2024-02-21T11:18:11;98823.59;;;10.66;66.06
77823;BME280;67013;49.730;17.292;2024-02-21T11:20:49;98815.77;;;10.69;66.22
77823;BME280;67013;49.730;17.292;2024-02-21T11:23:27;98809.80;;;10.72;65.99
77823;BME280;67013;49.730;17.292;2024-02-21T11:26:07;98806.52;;;10.77;66.03
77823;BME280;67013;49.730;17.292;2024-02-21T11:28:37;98800.05;;;10.85;65.87
77823;BME280;67013;49.730;17.292;2024-02-21T11:31:12;98796.10;;;10.94;65.47
77823;BME280;67013;49.730;17.292;2024-02-21T11:33:43;98792.50;;;11.04;65.89
77823;BME280;67013;49.730;17.292;2024-02-21T11:36:25;98782.26;;;11.11;66.16
77823;BME280;67013;49.730;17.292;2024-02-21T11:38:55;98790.08;;;11.21;66.11
77823;BME280;67013;49.730;17.292;2024-02-21T11:41:32;98784.92;;;11.30;65.88
77823;BME280;67013;49.730;17.292;2024-02-21T11:44:02;98778.01;;;11.37;66.10
77823;BME280;67013;49.730;17.292;2024-02-21T11:46:32;98774.88;;;11.45;65.78
77823;BME280;67013;49.730;17.292;2024-02-21T11:49:02;98773.45;;;11.53;65.04
77823;BME280;67013;49.730;17.292;2024-02-21T11:51:32;98773.95;;;11.60;64.23
77823;BME280;67013;49.730;17.292;2024-02-21T11:54:01;98770.79;;;11.63;64.65
77823;BME280;67013;49.730;17.292;2024-02-21T11:56:31;98769.91;;;11.65;63.88
77823;BME280;67013;49.730;17.292;2024-02-21T11:59:01;98768.19;;;11.65;63.54
77823;BME280;67013;49.730;17.292;2024-02-21T12:01:32;98765.01;;;11.66;63.15
77823;BME280;67013;49.730;17.292;2024-02-21T12:04:01;98766.93;;;11.65;63.68
77823;BME280;67013;49.730;17.292;2024-02-21T12:06:34;98767.22;;;11.66;63.40
77823;BME280;67013;49.730;17.292;2024-02-21T12:09:04;98766.67;;;11.66;63.20
77823;BME280;67013;49.730;17.292;2024-02-21T12:11:33;98764.34;;;11.65;63.11
77823;BME280;67013;49.730;17.292;2024-02-21T12:14:03;98760.77;;;11.64;62.84
77823;BME280;67013;49.730;17.292;2024-02-21T12:16:33;98757.20;;;11.63;62.61
77823;BME280;67013;49.730;17.292;2024-02-21T12:19:04;98752.99;;;11.63;63.92
77823;BME280;67013;49.730;17.292;2024-02-21T12:21:35;98750.36;;;11.63;64.00
77823;BME280;67013;49.730;17.292;2024-02-21T12:24:17;98746.48;;;11.64;64.43
77823;BME280;67013;49.730;17.292;2024-02-21T12:26:48;98743.19;;;11.66;64.25
77823;BME280;67013;49.730;17.292;2024-02-21T12:29:18;98742.48;;;11.69;63.40
77823;BME280;67013;49.730;17.292;2024-02-21T12:31:48;98744.52;;;11.72;62.52
77823;BME280;67013;49.730;17.292;2024-02-21T12:34:18;98744.45;;;11.73;62.93
77823;BME280;67013;49.730;17.292;2024-02-21T12:36:48;98742.69;;;11.73;62.38
77823;BME280;67013;49.730;17.292;2024-02-21T12:39:17;98742.59;;;11.74;62.08
77823;BME280;67013;49.730;17.292;2024-02-21T12:41:47;98736.89;;;11.77;61.69
77823;BME280;67013;49.730;17.292;2024-02-21T12:44:17;98726.02;;;11.80;61.31
77823;BME280;67013;49.730;17.292;2024-02-21T12:46:47;98721.16;;;11.85;60.90
77823;BME280;67013;49.730;17.292;2024-02-21T12:49:20;98722.23;;;11.89;60.81
77823;BME280;67013;49.730;17.292;2024-02-21T12:51:50;98720.20;;;11.90;60.74
77823;BME280;67013;49.730;17.292;2024-02-21T12:54:19;98720.80;;;11.89;60.47
77823;BME280;67013;49.730;17.292;2024-02-21T12:56:49;98720.02;;;11.86;60.19
77823;BME280;67013;49.730;17.292;2024-02-21T12:59:19;98721.46;;;11.80;60.75
77823;BME280;67013;49.730;17.292;2024-02-21T13:01:49;98722.28;;;11.74;61.10
77823;BME280;67013;49.730;17.292;2024-02-21T13:04:19;98714.39;;;11.67;61.71
77823;BME280;67013;49.730;17.292;2024-02-21T13:06:49;98709.48;;;11.63;62.84
77823;BME280;67013;49.730;17.292;2024-02-21T13:09:19;98706.08;;;11.59;62.78
77823;BME280;67013;49.730;17.292;2024-02-21T13:11:48;98699.31;;;11.54;62.93